This is the latest recevied weather packets stored in our database for station/object HS2XQB-3. If no packets are shown the sender has not sent any weather packets the latest 10 day(s).
| Time | Temp. | Humidity | Pressure | Rain* | Wind** | Luminosity | Snow |
|---|---|---|---|---|---|---|---|
| 1778303966 | 25° C | 45% | 1005 hPa | - | - | 0 W/m² | - |
| 1778302143 | 24.44° C | 49% | 1006 hPa | - | - | 0 W/m² | - |
| 1778300321 | 24.44° C | 47% | 1006 hPa | - | - | 0 W/m² | - |
| 1778298499 | 24.44° C | 46% | 1007 hPa | - | - | 0 W/m² | - |
| 1778296677 | 25° C | 46% | 1007 hPa | - | - | 0 W/m² | - |
| 1778294855 | 24.44° C | 47% | 1007 hPa | - | - | 0 W/m² | - |
| 1778293033 | 25° C | 61% | 1007 hPa | - | - | 0 W/m² | - |
| 1778291211 | 25° C | 60% | 1007 hPa | - | - | 0 W/m² | - |
| 1778289389 | 23.89° C | 60% | 1007 hPa | - | - | 0 W/m² | - |
| 1778287567 | 25° C | 74% | 1007 hPa | - | - | 0 W/m² | - |
| 1778285744 | 24.44° C | 84% | 1007 hPa | - | - | 0 W/m² | - |
| 1778283922 | 23.33° C | 78% | 1006 hPa | - | - | 0 W/m² | - |
| 1778282100 | 24.44° C | 92% | 1006 hPa | - | - | 0 W/m² | - |
| 1778280279 | 23.89° C | 90% | 1005 hPa | - | - | 0 W/m² | - |
| 1778278456 | 23.89° C | 87% | 1005 hPa | - | - | 0 W/m² | - |
| 1778276634 | 23.33° C | 79% | 1005 hPa | - | - | 0 W/m² | - |
| 1778274812 | 23.33° C | 84% | 1004 hPa | - | - | 0 W/m² | - |
| 1778272990 | 23.89° C | 83% | 1004 hPa | - | - | 0 W/m² | - |
| 1778271168 | 23.33° C | 80% | 1004 hPa | - | - | 0 W/m² | - |
| 1778269346 | 23.33° C | 79% | 1004 hPa | - | - | 0 W/m² | - |
| 1778267524 | 23.89° C | 81% | 1004 hPa | - | - | 0 W/m² | - |
| 1778265702 | 23.89° C | 79% | 1004 hPa | - | - | 0 W/m² | - |
| 1778263880 | 23.89° C | 88% | 1005 hPa | - | - | 0 W/m² | - |
| 1778262058 | 23.89° C | 85% | 1005 hPa | - | - | 0 W/m² | - |
| 1778260236 | 23.89° C | 82% | 1005 hPa | - | - | 0 W/m² | - |
* Rain since midnight (hover to see other rain measurements)
** Current wind speed in m/s (hover to see current wind gust speed)